Time;durP1;ratioP1;P1;durP2;ratioP2;P2;SDS_P1;SDS_P2;PMS_P1;PMS_P2;Temp;Humidity;BMP_temperature;BMP_pressure;BME280_temperature;BME280_humidity;BME280_pressure;Samples;Min_cycle;Max_cycle;Signal;HPM_P1;HPM_P2
2023/02/04 05:06:12;;;;;;;1.25;1.08;;;7.10;99.90;;;;;;5031379;28;20563;-62
2023/02/04 05:08:37;;;;;;;2.13;1.90;;;7.00;99.90;;;;;;5033512;28;20176;-62
2023/02/04 05:11:03;;;;;;;2.83;1.30;;;7.00;99.90;;;;;;5033523;28;20174;-62
2023/02/04 05:13:29;;;;;;;1.20;1.10;;;6.90;99.90;;;;;;5031763;28;20202;-62
2023/02/04 05:15:55;;;;;;;2.13;1.57;;;6.90;99.90;;;;;;5033421;28;20889;-62
2023/02/04 05:18:20;;;;;;;3.60;1.83;;;6.90;99.90;;;;;;5033351;28;20409;-62
2023/02/04 05:20:46;;;;;;;2.03;1.57;;;6.80;99.90;;;;;;5033185;28;20177;-62
2023/02/04 05:23:12;;;;;;;3.57;2.03;;;6.80;99.90;;;;;;5034663;28;20577;-62
2023/02/04 05:25:37;;;;;;;1.87;1.77;;;6.80;99.90;;;;;;5037299;28;20190;-62
2023/02/04 05:28:03;;;;;;;2.77;1.73;;;6.80;99.90;;;;;;5037248;28;20216;-63
2023/02/04 05:30:29;;;;;;;1.67;1.57;;;6.80;99.90;;;;;;5037298;28;20178;-63
2023/02/04 05:32:54;;;;;;;2.67;1.70;;;6.70;99.90;;;;;;5036961;28;20408;-62
2023/02/04 05:35:20;;;;;;;4.10;2.07;;;6.70;99.90;;;;;;5035968;28;20203;-61
2023/02/04 05:37:46;;;;;;;2.83;1.90;;;6.70;99.90;;;;;;5037576;28;20227;-62
2023/02/04 05:40:11;;;;;;;4.33;1.90;;;6.70;99.90;;;;;;5037162;28;20181;-61
2023/02/04 05:42:37;;;;;;;3.10;1.60;;;6.70;99.90;;;;;;5037088;28;20180;-62
2023/02/04 05:45:03;;;;;;;1.60;1.50;;;6.70;99.90;;;;;;5036598;28;20458;-62
2023/02/04 05:47:29;;;;;;;3.25;2.17;;;6.70;99.90;;;;;;5036886;28;20643;-63
2023/02/04 05:49:54;;;;;;;4.13;2.10;;;6.70;99.90;;;;;;5035516;28;20181;-62
2023/02/04 05:52:20;;;;;;;4.20;2.43;;;6.60;99.90;;;;;;5036753;28;20171;-61
2023/02/04 05:54:46;;;;;;;4.90;2.20;;;6.60;99.90;;;;;;5036283;28;20279;-61
2023/02/04 05:57:11;;;;;;;9.77;3.00;;;6.60;99.90;;;;;;5036604;28;20181;-61
2023/02/04 05:59:37;;;;;;;4.47;2.40;;;6.60;99.90;;;;;;5036331;28;20228;-61
2023/02/04 06:02:03;;;;;;;4.23;1.90;;;6.60;99.90;;;;;;5036604;28;20176;-61
2023/02/04 06:04:28;;;;;;;1.83;1.73;;;6.60;99.90;;;;;;5035728;28;20212;-61
2023/02/04 06:06:54;;;;;;;2.90;2.10;;;6.60;99.90;;;;;;5036800;28;20181;-62
2023/02/04 06:09:19;;;;;;;4.30;2.50;;;6.60;99.90;;;;;;5036324;28;20188;-62
2023/02/04 06:11:45;;;;;;;3.10;2.10;;;6.60;99.90;;;;;;5036366;28;20187;-61
2023/02/04 06:14:10;;;;;;;3.10;2.10;;;6.60;99.90;;;;;;5035842;28;20200;-62
2023/02/04 06:16:36;;;;;;;4.60;2.13;;;6.50;99.90;;;;;;5036093;28;20184;-62
2023/02/04 06:19:02;;;;;;;1.70;1.60;;;6.50;99.90;;;;;;5036078;28;20246;-62
2023/02/04 06:21:27;;;;;;;4.37;2.20;;;6.50;99.90;;;;;;5036022;28;20170;-62
2023/02/04 06:23:53;;;;;;;3.60;2.23;;;6.50;99.90;;;;;;5035431;28;20206;-62
2023/02/04 06:26:18;;;;;;;4.17;2.43;;;6.40;99.90;;;;;;5035807;28;20168;-62
2023/02/04 06:28:44;;;;;;;4.83;2.60;;;6.40;99.90;;;;;;5035974;28;20201;-62
2023/02/04 06:31:09;;;;;;;3.33;3.10;;;6.40;99.90;;;;;;5035559;28;20224;-61
2023/02/04 06:33:36;;;;;;;2.30;2.10;;;6.40;99.90;;;;;;5035059;28;20174;-62
2023/02/04 06:36:02;;;;;;;2.65;2.45;;;6.30;99.90;;;;;;5035982;28;20170;-62
2023/02/04 06:38:28;;;;;;;3.67;3.25;;;6.30;99.90;;;;;;5036009;28;20195;-61
2023/02/04 06:40:54;;;;;;;2.43;2.00;;;6.40;99.90;;;;;;5035952;28;20185;-61
2023/02/04 06:43:20;;;;;;;5.93;2.47;;;6.30;99.90;;;;;;5035362;28;20207;-61
2023/02/04 06:45:46;;;;;;;5.28;2.42;;;6.30;99.90;;;;;;5035638;28;20274;-61
2023/02/04 06:48:11;;;;;;;3.07;2.40;;;6.30;99.90;;;;;;5035590;28;20224;-62
2023/02/04 06:50:37;;;;;;;4.60;2.70;;;6.30;99.90;;;;;;5035730;28;20169;-62
2023/02/04 06:53:02;;;;;;;2.67;1.70;;;6.30;99.90;;;;;;5035293;28;20508;-62
2023/02/04 06:55:29;;;;;;;2.63;2.23;;;6.30;99.90;;;;;;5035631;28;20665;-62
2023/02/04 06:57:54;;;;;;;4.05;3.65;;;6.30;99.90;;;;;;5035521;28;20551;-61
2023/02/04 07:00:20;;;;;;;4.70;2.90;;;6.30;99.90;;;;;;5035445;28;20251;-62
2023/02/04 07:02:46;;;;;;;4.03;2.70;;;6.30;99.90;;;;;;5033616;28;20708;-64
2023/02/04 07:05:11;;;;;;;6.40;2.70;;;6.30;99.90;;;;;;5034940;28;20217;-63
2023/02/04 07:07:37;;;;;;;9.57;2.60;;;6.30;99.90;;;;;;5035206;28;20174;-62
2023/02/04 07:10:03;;;;;;;8.83;4.63;;;6.40;99.90;;;;;;5035374;28;20516;-62
2023/02/04 07:12:29;;;;;;;5.93;2.78;;;6.40;99.90;;;;;;5035401;28;20181;-62
2023/02/04 07:14:56;;;;;;;4.45;3.15;;;6.40;99.90;;;;;;5034801;28;20324;-63
2023/02/04 07:17:22;;;;;;;3.97;3.47;;;6.40;99.90;;;;;;5034877;28;20209;-63
2023/02/04 07:19:48;;;;;;;2.80;1.90;;;6.50;99.90;;;;;;5035298;28;20219;-62
2023/02/04 07:22:13;;;;;;;3.53;2.43;;;6.50;99.90;;;;;;5035146;28;20778;-61
2023/02/04 07:24:39;;;;;;;6.03;2.97;;;6.40;99.90;;;;;;5034514;28;20209;-62
2023/02/04 07:27:05;;;;;;;5.70;2.27;;;6.50;99.90;;;;;;5034996;28;20174;-62
2023/02/04 07:29:30;;;;;;;4.50;2.43;;;6.50;99.90;;;;;;5034887;28;20162;-62
2023/02/04 07:31:56;;;;;;;5.73;2.40;;;6.50;99.90;;;;;;5034731;28;20534;-62
2023/02/04 07:34:21;;;;;;;8.17;3.03;;;6.50;99.90;;;;;;5034428;28;20555;-62
2023/02/04 07:36:47;;;;;;;3.90;2.60;;;6.50;99.90;;;;;;5034925;28;20177;-62
2023/02/04 07:39:13;;;;;;;4.73;3.27;;;6.50;99.90;;;;;;5034723;28;20170;-63
2023/02/04 07:41:38;;;;;;;5.93;2.50;;;6.60;99.90;;;;;;5034531;28;20256;-61
2023/02/04 07:44:04;;;;;;;7.13;2.23;;;6.60;99.90;;;;;;5034006;28;20687;-63
2023/02/04 07:46:30;;;;;;;5.43;3.50;;;6.60;99.90;;;;;;5033944;28;20181;-62
2023/02/04 07:48:55;;;;;;;4.23;3.67;;;6.60;99.90;;;;;;5034653;28;20166;-61
2023/02/04 07:51:21;;;;;;;7.57;3.93;;;6.70;99.90;;;;;;5034499;28;20168;-62
2023/02/04 07:53:46;;;;;;;4.40;3.23;;;6.70;99.90;;;;;;5033867;28;20290;-62
2023/02/04 07:56:12;;;;;;;3.30;2.53;;;6.70;99.90;;;;;;5034590;28;20185;-62
2023/02/04 07:58:37;;;;;;;7.43;3.80;;;6.80;99.90;;;;;;5034177;28;20227;-62
2023/02/04 08:01:03;;;;;;;4.70;3.00;;;6.80;99.90;;;;;;5034341;28;20223;-62
2023/02/04 08:03:29;;;;;;;5.07;3.20;;;6.90;99.90;;;;;;5033817;28;20595;-62
2023/02/04 08:05:55;;;;;;;5.03;3.70;;;6.90;99.90;;;;;;5034161;28;20197;-65
2023/02/04 08:08:20;;;;;;;9.70;4.47;;;6.90;99.90;;;;;;5034027;28;20172;-66
2023/02/04 08:10:46;;;;;;;8.40;3.70;;;7.00;99.90;;;;;;5034071;28;20397;-65
2023/02/04 08:13:12;;;;;;;5.05;3.25;;;7.00;99.90;;;;;;5016967;28;20253;-67
2023/02/04 08:15:38;;;;;;;6.90;4.13;;;7.00;99.90;;;;;;5023478;28;20251;-65
2023/02/04 08:18:03;;;;;;;7.03;3.43;;;7.00;99.90;;;;;;5019790;28;20418;-71
2023/02/04 08:20:29;;;;;;;4.70;3.07;;;7.00;99.90;;;;;;5017811;28;20257;-62
2023/02/04 08:22:56;;;;;;;3.60;2.60;;;7.00;99.90;;;;;;5015438;28;20246;-63
2023/02/04 08:25:21;;;;;;;4.22;2.40;;;7.10;99.90;;;;;;5014164;28;20694;-63
2023/02/04 08:27:47;;;;;;;9.07;4.87;;;7.20;99.90;;;;;;5019098;28;20174;-64
2023/02/04 08:30:13;;;;;;;3.50;2.77;;;7.20;99.90;;;;;;5017959;28;20262;-62
2023/02/04 08:32:38;;;;;;;3.03;2.83;;;7.20;99.90;;;;;;5024683;28;20178;-62
2023/02/04 08:35:05;;;;;;;6.53;3.00;;;7.20;99.90;;;;;;5032188;28;20232;-61
2023/02/04 08:37:31;;;;;;;5.97;3.05;;;7.30;99.90;;;;;;4998545;28;20190;-63
2023/02/04 08:39:57;;;;;;;4.00;2.70;;;7.30;99.90;;;;;;5031396;28;20599;-62
2023/02/04 08:42:22;;;;;;;3.37;3.07;;;7.40;99.90;;;;;;5033472;28;20178;-63
2023/02/04 08:44:48;;;;;;;3.63;2.53;;;7.50;99.90;;;;;;5032351;28;20567;-63
2023/02/04 08:47:13;;;;;;;4.60;2.67;;;7.50;99.90;;;;;;5033421;28;20536;-64
2023/02/04 08:49:39;;;;;;;4.23;2.60;;;7.60;99.90;;;;;;5032111;28;20227;-64
2023/02/04 08:52:06;;;;;;;3.90;2.40;;;7.60;99.90;;;;;;5019420;28;20186;-63
2023/02/04 08:54:33;;;;;;;4.65;2.80;;;7.60;99.90;;;;;;5013200;28;20206;-64
2023/02/04 08:56:58;;;;;;;6.10;3.47;;;7.70;99.90;;;;;;5012834;28;20202;-63
2023/02/04 08:59:24;;;;;;;4.63;1.83;;;7.80;99.90;;;;;;5013099;28;20615;-63
2023/02/04 09:01:51;;;;;;;6.65;1.80;;;7.80;99.90;;;;;;5013393;28;20756;-63
2023/02/04 09:04:21;;;;;;;5.32;3.00;;;7.80;99.90;;;;;;5013057;28;20205;-67
2023/02/04 09:06:47;;;;;;;5.00;2.67;;;7.90;99.90;;;;;;5013417;28;20183;-64
2023/02/04 09:09:13;;;;;;;7.90;2.45;;;8.00;99.90;;;;;;5013297;28;20186;-64
2023/02/04 09:11:39;;;;;;;5.93;3.20;;;8.00;99.90;;;;;;5013535;28;20171;-63
2023/02/04 09:14:05;;;;;;;6.93;2.90;;;8.10;99.90;;;;;;5012574;28;20434;-65
2023/02/04 09:16:31;;;;;;;3.70;1.80;;;8.10;99.90;;;;;;5013223;28;20171;-61
2023/02/04 09:19:00;;;;;;;10.50;2.30;;;8.30;99.90;;;;;;5012601;28;20410;-67
2023/02/04 09:21:27;;;;;;;3.03;2.15;;;8.40;99.90;;;;;;5013201;28;20187;-68
2023/02/04 09:23:52;;;;;;;2.00;1.90;;;8.70;99.90;;;;;;5013821;28;20217;-64
2023/02/04 09:26:18;;;;;;;2.00;1.63;;;8.90;99.90;;;;;;5028984;28;20184;-64
2023/02/04 09:28:44;;;;;;;4.33;2.07;;;9.40;99.90;;;;;;5032722;28;20681;-65
2023/02/04 09:31:10;;;;;;;2.10;1.90;;;9.90;99.90;;;;;;5033107;28;20775;-66
2023/02/04 09:33:37;;;;;;;4.17;1.83;;;10.50;99.90;;;;;;5031839;28;20184;-64
2023/02/04 09:36:03;;;;;;;5.63;2.60;;;11.00;99.90;;;;;;5032840;28;20474;-64
2023/02/04 09:38:29;;;;;;;4.63;2.23;;;11.20;99.90;;;;;;5032705;28;20478;-64
2023/02/04 09:41:01;;;;;;;6.27;2.30;;;11.10;99.90;;;;;;5032500;28;20412;-66
2023/02/04 09:43:30;;;;;;;8.33;2.20;;;11.00;99.90;;;;;;5030718;28;20238;-65
2023/02/04 09:45:57;;;;;;;4.00;1.87;;;10.80;99.90;;;;;;5032458;28;20407;-65
2023/02/04 09:48:23;;;;;;;4.23;2.43;;;10.50;99.90;;;;;;5032696;28;20403;-63
2023/02/04 09:50:51;;;;;;;3.57;1.67;;;10.20;99.90;;;;;;5031847;28;20906;-64
2023/02/04 09:53:20;;;;;;;9.17;2.83;;;10.10;99.90;;;;;;5031793;28;20416;-63
2023/02/04 09:55:46;;;;;;;2.47;1.27;;;10.70;99.90;;;;;;5030070;28;20455;-63
2023/02/04 09:58:16;;;;;;;2.50;1.53;;;11.60;99.90;;;;;;5032650;28;20409;-63
2023/02/04 10:00:45;;;;;;;1.93;1.07;;;12.70;99.90;;;;;;4998173;28;20422;-65
2023/02/04 10:03:15;;;;;;;1.40;1.30;;;13.20;98.70;;;;;;5022305;28;20424;-64
2023/02/04 10:05:41;;;;;;;1.93;1.83;;;13.10;96.90;;;;;;5025293;28;20461;-65
2023/02/04 10:08:13;;;;;;;1.77;1.67;;;12.80;96.70;;;;;;5032330;28;20780;-64
2023/02/04 10:10:39;;;;;;;4.13;1.83;;;12.40;98.30;;;;;;5036315;28;20790;-63
2023/02/04 10:13:07;;;;;;;1.90;1.47;;;11.80;99.90;;;;;;5035592;28;20416;-64
2023/02/04 10:15:33;;;;;;;6.53;1.60;;;11.60;99.90;;;;;;5035896;28;20217;-63
2023/02/04 10:18:04;;;;;;;2.77;2.43;;;11.50;99.90;;;;;;5035515;28;20459;-64
2023/02/04 10:20:30;;;;;;;3.83;1.53;;;11.30;99.90;;;;;;5033782;28;20499;-63
2023/02/04 10:22:55;;;;;;;4.23;1.47;;;11.00;99.90;;;;;;5035520;28;20910;-65
2023/02/04 10:25:23;;;;;;;2.97;1.30;;;10.60;99.90;;;;;;5034601;28;20204;-67
2023/02/04 10:27:54;;;;;;;1.53;1.43;;;10.10;99.90;;;;;;5015570;28;20188;-63
2023/02/04 10:30:21;;;;;;;1.70;1.60;;;9.80;99.90;;;;;;5015737;28;20417;-64
2023/02/04 10:32:47;;;;;;;6.83;1.93;;;9.60;99.90;;;;;;5015282;28;20418;-63
2023/02/04 10:35:15;;;;;;;3.90;2.13;;;9.40;99.90;;;;;;5015792;28;20481;-62
2023/02/04 10:37:40;;;;;;;4.10;1.60;;;9.30;99.90;;;;;;5016052;28;20409;-64
2023/02/04 10:40:41;;;;;;;2.13;1.90;;;9.30;99.90;;;;;;5015787;28;20438;-63
2023/02/04 10:43:09;;;;;;;2.75;1.30;;;9.20;99.90;;;;;;5015361;28;20669;-65
2023/02/04 10:45:35;;;;;;;1.90;1.48;;;9.10;99.90;;;;;;5017973;28;20203;-64
2023/02/04 10:48:00;;;;;;;5.70;2.20;;;9.10;99.90;;;;;;5035370;28;20181;-64
2023/02/04 10:50:29;;;;;;;6.93;1.77;;;8.90;99.90;;;;;;5026200;28;20175;-64
2023/02/04 10:54:28;;;;;;;4.43;2.08;;;8.90;99.90;;;;;;5032956;28;20254;-62
2023/02/04 10:55:47;;;;;;;6.57;2.05;;;8.90;99.90;;;;;;5034362;28;20206;-64
2023/02/04 10:58:19;;;;;;;3.15;1.40;;;9.00;99.90;;;;;;5035135;28;20170;-62
2023/02/04 11:00:44;;;;;;;2.78;1.58;;;9.10;99.90;;;;;;5034625;28;20257;-65
2023/02/04 11:03:17;;;;;;;3.53;1.70;;;9.30;99.90;;;;;;5030226;28;20258;-64
2023/02/04 11:05:43;;;;;;;3.72;1.73;;;9.40;99.90;;;;;;5025825;28;20684;-66
2023/02/04 11:08:21;;;;;;;2.17;1.00;;;9.70;99.90;;;;;;5018376;28;20184;-64
2023/02/04 11:10:50;;;;;;;9.48;1.55;;;9.80;99.90;;;;;;5029537;28;20181;-66
2023/02/04 11:13:25;;;;;;;2.00;1.33;;;9.90;99.90;;;;;;5013397;28;20237;-62
2023/02/04 11:16:17;;;;;;;3.70;1.30;;;10.30;99.90;;;;;;5015121;28;20442;-64
2023/02/04 11:19:09;;;;;;;1.80;1.70;;;10.60;99.90;;;;;;5005837;28;20467;-65
2023/02/04 11:21:35;;;;;;;2.10;1.97;;;10.70;99.90;;;;;;5013645;28;20417;-65
2023/02/04 11:24:12;;;;;;;3.27;1.43;;;10.50;99.90;;;;;;5014700;28;20471;-64
2023/02/04 11:26:40;;;;;;;2.80;2.17;;;10.30;99.90;;;;;;5015043;28;20582;-65
2023/02/04 11:29:07;;;;;;;2.20;1.60;;;10.20;99.90;;;;;;5023519;28;20419;-66
2023/02/04 11:31:32;;;;;;;3.00;1.70;;;10.10;99.90;;;;;;5034814;28;20415;-64
2023/02/04 11:34:22;;;;;;;4.27;1.40;;;10.00;99.90;;;;;;5034316;28;20437;-65
2023/02/04 11:37:06;;;;;;;5.17;1.23;;;9.80;99.90;;;;;;5034824;28;20172;-63
2023/02/04 11:39:42;;;;;;;3.83;1.50;;;9.70;99.90;;;;;;5033751;28;20419;-66
2023/02/04 11:42:25;;;;;;;2.65;1.73;;;9.70;99.90;;;;;;5034565;28;20413;-63
2023/02/04 11:44:58;;;;;;;7.35;2.58;;;9.70;99.90;;;;;;5034103;28;20250;-64
2023/02/04 11:47:25;;;;;;;2.40;2.30;;;9.60;99.90;;;;;;5034366;28;20171;-65
2023/02/04 11:49:58;;;;;;;3.10;1.70;;;9.50;99.90;;;;;;5034280;28;20539;-67
2023/02/04 11:52:24;;;;;;;3.38;1.60;;;9.30;99.90;;;;;;5034522;28;20409;-64
2023/02/04 11:54:58;;;;;;;4.77;2.60;;;9.20;99.90;;;;;;5033987;28;20277;-63
2023/02/04 11:57:25;;;;;;;3.92;1.88;;;9.20;99.90;;;;;;5034610;28;20228;-65
2023/02/04 11:59:51;;;;;;;3.22;2.25;;;9.30;99.90;;;;;;5034337;28;20184;-65
2023/02/04 12:02:20;;;;;;;1.85;1.10;;;9.20;99.90;;;;;;5033724;28;20186;-66
2023/02/04 12:04:57;;;;;;;3.50;2.05;;;9.30;99.90;;;;;;5024955;28;20258;-64
2023/02/04 12:07:28;;;;;;;1.88;1.27;;;9.30;99.90;;;;;;5033931;28;20557;-65
2023/02/04 12:09:55;;;;;;;4.50;1.20;;;9.30;99.90;;;;;;5034195;28;20195;-65
2023/02/04 12:12:29;;;;;;;3.60;1.50;;;9.30;99.90;;;;;;5032487;28;20170;-64
2023/02/04 12:15:08;;;;;;;3.05;1.60;;;9.50;99.90;;;;;;5032544;28;20236;-64
2023/02/04 12:17:33;;;;;;;2.28;2.10;;;9.60;99.90;;;;;;5033406;28;20240;-66
2023/02/04 12:19:59;;;;;;;2.57;1.87;;;9.70;99.90;;;;;;5034157;28;20525;-64
2023/02/04 12:22:25;;;;;;;3.13;1.40;;;9.70;99.90;;;;;;5033687;28;20178;-65
2023/02/04 12:24:51;;;;;;;2.03;1.10;;;9.90;99.90;;;;;;5033401;28;20705;-66
2023/02/04 12:27:17;;;;;;;5.60;2.20;;;10.00;99.90;;;;;;5033881;28;20636;-64
2023/02/04 12:29:42;;;;;;;12.10;1.80;;;9.90;99.90;;;;;;5033820;28;20921;-65
2023/02/04 12:32:08;;;;;;;2.93;1.37;;;9.90;99.90;;;;;;5029351;28;20426;-64
2023/02/04 12:34:33;;;;;;;2.53;1.30;;;9.80;99.90;;;;;;5033409;28;20668;-67
2023/02/04 12:36:59;;;;;;;2.77;1.33;;;9.80;99.90;;;;;;5033806;28;20183;-64
2023/02/04 12:39:25;;;;;;;1.33;1.23;;;9.80;99.90;;;;;;5033877;28;20644;-65
2023/02/04 12:41:50;;;;;;;3.07;1.40;;;9.70;99.90;;;;;;5033047;28;20202;-66
2023/02/04 12:44:16;;;;;;;1.97;1.50;;;9.60;99.90;;;;;;5032815;28;20216;-67
2023/02/04 12:46:41;;;;;;;8.77;2.40;;;9.60;99.90;;;;;;5033204;28;20179;-65
2023/02/04 12:49:07;;;;;;;2.30;1.20;;;9.40;99.90;;;;;;5033436;28;20693;-65
2023/02/04 12:51:33;;;;;;;1.47;1.47;;;9.40;99.90;;;;;;5033413;28;20185;-65
2023/02/04 12:53:58;;;;;;;1.37;1.37;;;9.40;99.90;;;;;;5024392;28;20657;-65
2023/02/04 12:56:24;;;;;;;1.33;1.23;;;9.30;99.90;;;;;;5013717;28;20175;-65
2023/02/04 12:58:49;;;;;;;3.27;1.47;;;9.30;99.90;;;;;;5013498;28;20620;-64
2023/02/04 13:01:15;;;;;;;3.97;1.90;;;9.40;99.90;;;;;;5019229;28;20184;-64
2023/02/04 13:03:40;;;;;;;5.03;1.93;;;9.40;99.90;;;;;;5032961;28;20191;-64
2023/02/04 13:06:06;;;;;;;2.73;1.33;;;9.30;99.90;;;;;;5033035;28;20286;-65
2023/02/04 13:08:31;;;;;;;1.50;1.40;;;9.30;99.90;;;;;;5033469;28;20696;-66
2023/02/04 13:10:57;;;;;;;2.40;1.60;;;9.30;99.90;;;;;;5033263;28;20180;-64
2023/02/04 13:13:23;;;;;;;1.70;1.60;;;9.30;99.90;;;;;;5032786;28;20178;-64
2023/02/04 13:15:48;;;;;;;2.60;2.10;;;9.40;99.90;;;;;;5032291;28;20251;-65
2023/02/04 13:18:14;;;;;;;2.17;1.37;;;9.40;99.90;;;;;;5028768;28;20175;-65
2023/02/04 13:20:41;;;;;;;2.55;1.30;;;9.50;99.90;;;;;;5015879;28;20186;-65
2023/02/04 13:23:06;;;;;;;4.22;1.63;;;9.60;99.90;;;;;;5032917;28;20613;-67
2023/02/04 13:25:32;;;;;;;1.67;1.43;;;9.60;99.90;;;;;;5023387;28;20205;-65
2023/02/04 13:27:58;;;;;;;1.90;1.60;;;9.60;99.90;;;;;;5013502;28;20245;-66
2023/02/04 13:30:23;;;;;;;4.13;1.70;;;9.50;99.90;;;;;;5013792;28;20283;-65
2023/02/04 13:32:49;;;;;;;4.83;1.77;;;9.50;99.90;;;;;;5014637;28;20171;-65
2023/02/04 13:35:15;;;;;;;2.60;1.80;;;9.50;99.90;;;;;;5031216;28;20702;-63
2023/02/04 13:37:40;;;;;;;3.20;1.50;;;9.40;99.90;;;;;;5032129;28;20507;-66
2023/02/04 13:40:08;;;;;;;3.07;1.33;;;9.50;99.90;;;;;;5032807;28;20175;-64
2023/02/04 13:42:34;;;;;;;1.48;1.38;;;9.50;99.90;;;;;;5029735;28;20187;-65
2023/02/04 13:44:59;;;;;;;1.77;1.20;;;9.40;99.90;;;;;;5020722;28;20207;-66
2023/02/04 13:47:25;;;;;;;1.90;1.57;;;9.40;99.90;;;;;;5016849;28;20178;-64
2023/02/04 13:49:51;;;;;;;3.97;1.20;;;9.40;99.90;;;;;;5017268;28;20170;-65
2023/02/04 13:52:17;;;;;;;6.03;1.63;;;9.40;99.90;;;;;;5017753;28;20785;-65
2023/02/04 13:54:44;;;;;;;1.27;1.17;;;9.40;99.90;;;;;;5018948;28;20850;-64
2023/02/04 13:57:09;;;;;;;1.38;0.85;;;9.30;99.90;;;;;;5035514;28;20962;-66
2023/02/04 13:59:35;;;;;;;1.37;1.20;;;9.30;99.90;;;;;;5036013;28;20206;-66
2023/02/04 14:02:01;;;;;;;1.80;1.20;;;9.30;99.90;;;;;;5032931;28;20178;-66
2023/02/04 14:04:27;;;;;;;2.92;1.25;;;9.30;99.90;;;;;;5024273;28;20202;-66
2023/02/04 14:06:53;;;;;;;2.60;1.50;;;9.30;99.90;;;;;;5032143;28;20257;-65
2023/02/04 14:09:20;;;;;;;2.30;1.20;;;9.30;99.90;;;;;;5030025;28;20178;-64
2023/02/04 14:11:46;;;;;;;3.80;1.83;;;9.30;99.90;;;;;;5022024;28;20254;-66
2023/02/04 14:14:12;;;;;;;0.97;0.90;;;9.30;99.90;;;;;;5016595;28;20226;-62
2023/02/04 14:16:37;;;;;;;4.90;1.43;;;9.30;99.90;;;;;;5035933;28;20182;-66
2023/02/04 14:19:03;;;;;;;1.40;1.30;;;9.30;99.90;;;;;;5036183;28;20409;-64
2023/02/04 14:21:29;;;;;;;2.87;1.63;;;9.30;99.90;;;;;;5035952;28;20266;-65
2023/02/04 14:23:54;;;;;;;2.97;2.77;;;9.30;99.90;;;;;;5034044;28;20460;-64
2023/02/04 14:26:20;;;;;;;2.50;1.40;;;9.40;99.90;;;;;;5035484;28;20659;-64
2023/02/04 14:28:46;;;;;;;3.10;1.50;;;9.40;99.90;;;;;;5035735;28;20227;-63
2023/02/04 14:31:11;;;;;;;2.77;0.97;;;9.30;99.90;;;;;;5034466;28;20178;-63
2023/02/04 14:33:37;;;;;;;3.30;1.97;;;9.30;99.90;;;;;;5035210;28;20178;-64
2023/02/04 14:36:03;;;;;;;2.50;1.47;;;9.40;99.90;;;;;;5035209;28;20219;-62
2023/02/04 14:38:29;;;;;;;2.00;0.97;;;9.40;99.90;;;;;;5034264;28;20227;-62
2023/02/04 14:40:59;;;;;;;1.90;1.70;;;9.50;99.90;;;;;;5025387;28;20436;-63
2023/02/04 14:43:25;;;;;;;2.88;1.40;;;9.60;99.90;;;;;;5023232;28;20656;-63
2023/02/04 14:45:50;;;;;;;1.90;1.40;;;9.50;99.90;;;;;;5028458;28;20215;-63
2023/02/04 14:48:16;;;;;;;3.00;2.77;;;9.40;99.90;;;;;;5026147;28;20544;-63
2023/02/04 14:50:41;;;;;;;2.40;1.20;;;9.40;99.90;;;;;;5024564;28;20182;-64
2023/02/04 14:53:07;;;;;;;1.60;1.50;;;9.40;99.90;;;;;;5030175;28;20220;-64
2023/02/04 14:55:32;;;;;;;0.93;0.70;;;9.30;99.90;;;;;;5032077;28;20206;-64
2023/02/04 14:57:58;;;;;;;2.03;1.33;;;9.20;99.90;;;;;;5029076;28;20623;-62
2023/02/04 15:00:24;;;;;;;6.63;1.47;;;9.20;99.90;;;;;;5028843;28;20577;-62
2023/02/04 15:02:50;;;;;;;2.97;1.20;;;9.20;99.90;;;;;;5022328;28;20425;-64
2023/02/04 15:05:15;;;;;;;5.03;1.37;;;9.20;99.90;;;;;;5023585;28;20206;-64
2023/02/04 15:07:41;;;;;;;2.20;1.00;;;9.20;99.90;;;;;;5030189;28;20197;-66
2023/02/04 15:10:09;;;;;;;2.17;0.87;;;9.20;99.90;;;;;;5017936;28;20182;-65
2023/02/04 15:12:35;;;;;;;0.85;0.85;;;9.20;99.90;;;;;;5033913;28;20174;-64
2023/02/04 15:15:00;;;;;;;1.10;1.00;;;9.10;99.90;;;;;;5024616;28;20197;-65
2023/02/04 15:17:26;;;;;;;0.93;0.73;;;9.00;99.90;;;;;;5026407;28;20453;-64
2023/02/04 15:19:51;;;;;;;0.80;0.80;;;8.90;99.90;;;;;;5020355;28;20324;-66
2023/02/04 15:22:17;;;;;;;1.20;1.10;;;8.80;99.90;;;;;;5017760;28;20189;-64
2023/02/04 15:24:42;;;;;;;1.00;0.90;;;8.70;99.90;;;;;;5018979;28;20243;-67
2023/02/04 15:27:08;;;;;;;0.70;0.70;;;8.60;99.90;;;;;;5018833;28;20269;-66
2023/02/04 15:29:34;;;;;;;1.10;1.00;;;8.50;99.90;;;;;;5015183;28;20568;-66
2023/02/04 15:31:59;;;;;;;2.50;1.10;;;8.40;99.90;;;;;;5024517;28;20185;-69
2023/02/04 15:34:25;;;;;;;1.70;0.70;;;8.40;99.90;;;;;;5019257;28;20538;-67
2023/02/04 15:36:51;;;;;;;2.17;1.67;;;8.30;99.90;;;;;;5026141;28;20186;-68
2023/02/04 15:39:16;;;;;;;2.97;1.23;;;8.20;99.90;;;;;;5028896;28;20209;-67
2023/02/04 15:41:42;;;;;;;2.60;1.30;;;8.20;99.90;;;;;;5020589;28;20182;-67
2023/02/04 15:44:07;;;;;;;1.80;0.90;;;8.10;99.90;;;;;;5025863;28;20557;-66
2023/02/04 15:46:36;;;;;;;0.60;0.60;;;8.00;99.90;;;;;;5019251;28;20534;-67
2023/02/04 15:49:02;;;;;;;2.40;1.05;;;7.90;99.90;;;;;;5019627;28;20493;-67
2023/02/04 15:51:27;;;;;;;5.30;1.97;;;7.80;99.90;;;;;;5016715;28;20178;-65
2023/02/04 15:53:53;;;;;;;1.27;1.17;;;7.80;99.90;;;;;;5013388;28;20201;-64
2023/02/04 15:56:18;;;;;;;4.20;1.67;;;7.70;99.90;;;;;;5020724;28;20188;-64
2023/02/04 15:58:44;;;;;;;3.10;1.60;;;7.60;99.90;;;;;;5017556;28;20205;-66
2023/02/04 16:01:10;;;;;;;1.60;1.03;;;7.60;99.90;;;;;;5020622;28;20261;-66
2023/02/04 16:03:35;;;;;;;1.50;1.40;;;7.50;99.90;;;;;;5024326;28;20529;-65
2023/02/04 16:06:01;;;;;;;2.70;1.03;;;7.40;99.90;;;;;;5023546;28;20182;-65
2023/02/04 16:08:27;;;;;;;1.47;1.10;;;7.30;99.90;;;;;;5029097;28;20230;-65
2023/02/04 16:10:55;;;;;;;5.93;2.47;;;7.30;99.90;;;;;;5032070;28;20174;-67
2023/02/04 16:13:21;;;;;;;3.33;1.63;;;7.30;99.90;;;;;;5026525;28;20175;-64
2023/02/04 16:15:46;;;;;;;1.90;1.63;;;7.30;99.90;;;;;;5023855;28;20267;-65
2023/02/04 16:18:12;;;;;;;3.13;1.97;;;7.30;99.90;;;;;;5015005;28;20183;-66
2023/02/04 16:20:38;;;;;;;4.93;3.37;;;7.30;99.90;;;;;;5027618;28;20651;-65
2023/02/04 16:23:05;;;;;;;1.67;1.23;;;7.30;99.90;;;;;;5030472;28;20177;-64
2023/02/04 16:25:31;;;;;;;2.35;1.17;;;7.30;99.90;;;;;;5019633;28;20213;-63
2023/02/04 16:27:57;;;;;;;3.50;1.95;;;7.20;99.90;;;;;;5024398;28;20540;-64
2023/02/04 16:30:23;;;;;;;4.30;2.07;;;7.20;99.90;;;;;;5018625;28;20184;-66
2023/02/04 16:32:48;;;;;;;2.27;1.70;;;7.10;99.90;;;;;;5021249;28;20221;-65
2023/02/04 16:35:14;;;;;;;6.40;1.70;;;7.10;99.90;;;;;;5019841;28;20207;-67
2023/02/04 16:37:40;;;;;;;5.60;1.87;;;7.10;99.90;;;;;;5031161;28;20186;-65
2023/02/04 16:40:06;;;;;;;3.10;2.20;;;6.90;99.90;;;;;;5031617;28;20177;-66
2023/02/04 16:42:32;;;;;;;1.40;1.23;;;6.90;99.90;;;;;;5031236;28;20174;-66
2023/02/04 16:44:58;;;;;;;2.17;1.37;;;6.80;99.90;;;;;;5043730;28;20614;-65
2023/02/04 16:47:24;;;;;;;2.30;2.10;;;6.80;99.90;;;;;;5024146;28;20417;-66
2023/02/04 16:49:50;;;;;;;8.80;2.80;;;6.70;99.90;;;;;;5017568;28;20541;-66
2023/02/04 16:52:16;;;;;;;4.53;2.47;;;6.70;99.90;;;;;;5022369;28;20490;-66
2023/02/04 16:54:42;;;;;;;8.80;3.70;;;6.60;99.90;;;;;;5020659;28;20204;-65
2023/02/04 16:57:08;;;;;;;5.22;3.10;;;6.60;99.90;;;;;;5020399;28;20422;-66
2023/02/04 16:59:34;;;;;;;7.10;2.30;;;6.50;99.90;;;;;;5020367;28;20189;-65
2023/02/04 17:02:00;;;;;;;2.00;1.90;;;6.40;99.90;;;;;;5030985;28;20177;-66
2023/02/04 17:04:26;;;;;;;5.63;3.53;;;6.40;99.90;;;;;;5026302;28;20464;-65
2023/02/04 17:06:52;;;;;;;2.42;2.22;;;6.30;99.90;;;;;;5017991;28;20193;-65
2023/02/04 17:09:18;;;;;;;3.10;2.07;;;6.30;99.90;;;;;;5013344;28;20232;-66
2023/02/04 17:11:44;;;;;;;2.67;1.80;;;6.20;99.90;;;;;;5013996;28;20915;-64
2023/02/04 17:14:14;;;;;;;3.33;2.90;;;6.10;99.90;;;;;;5029364;28;20202;-66
2023/02/04 17:16:43;;;;;;;4.45;3.40;;;6.00;99.90;;;;;;5014697;28;20186;-64
2023/02/04 17:19:10;;;;;;;4.55;3.25;;;5.90;99.90;;;;;;5025604;28;20253;-65
2023/02/04 17:21:37;;;;;;;4.80;4.22;;;5.90;99.90;;;;;;5033202;28;20189;-64
2023/02/04 17:24:05;;;;;;;5.03;4.25;;;5.80;99.90;;;;;;5030857;28;20275;-64
2023/02/04 17:26:36;;;;;;;6.80;3.17;;;5.80;99.90;;;;;;5024392;28;20181;-64
2023/02/04 17:29:03;;;;;;;2.90;2.58;;;5.80;99.90;;;;;;5021279;28;20255;-65
2023/02/04 17:31:29;;;;;;;3.38;2.30;;;5.70;99.90;;;;;;5021078;28;20740;-64
2023/02/04 17:33:54;;;;;;;2.50;2.30;;;5.70;99.90;;;;;;5022321;28;20285;-64
2023/02/04 17:36:20;;;;;;;2.70;1.87;;;5.70;99.90;;;;;;5034715;28;20201;-66
2023/02/04 17:38:46;;;;;;;4.40;2.70;;;5.60;99.90;;;;;;5029680;28;20184;-68
2023/02/04 17:41:11;;;;;;;3.60;2.60;;;5.60;99.90;;;;;;5018939;28;20176;-66
2023/02/04 17:43:37;;;;;;;2.63;2.43;;;5.50;99.90;;;;;;5034138;28;20182;-65
2023/02/04 17:46:03;;;;;;;2.13;1.93;;;5.50;99.90;;;;;;5030136;28;20184;-65
2023/02/04 17:48:28;;;;;;;2.50;2.07;;;5.60;99.90;;;;;;5035707;28;20263;-64
2023/02/04 17:50:54;;;;;;;2.43;1.73;;;5.60;99.90;;;;;;5030270;28;20413;-65
2023/02/04 17:53:19;;;;;;;3.70;2.57;;;5.60;99.90;;;;;;5023053;28;20168;-64
2023/02/04 17:55:45;;;;;;;2.10;2.00;;;5.60;99.90;;;;;;5021063;28;20549;-65
2023/02/04 17:58:18;;;;;;;5.87;2.57;;;5.60;99.90;;;;;;5019261;28;20220;-63